createdAt,value
2018-08-23T00:00:45.782Z,30.30
2018-08-23T00:03:19.612Z,32.63
2018-08-23T00:05:54.408Z,31.40
2018-08-23T00:08:24.156Z,31.70
2018-08-23T00:10:54.284Z,28.63
2018-08-23T00:13:25.509Z,36.00
2018-08-23T00:15:57.868Z,34.93
2018-08-23T00:18:26.539Z,34.43
2018-08-23T00:20:55.549Z,38.80
2018-08-23T00:23:24.527Z,38.73
2018-08-23T00:25:53.675Z,41.13
2018-08-23T00:28:22.373Z,41.03
2018-08-23T00:30:51.890Z,43.07
2018-08-23T00:33:20.380Z,39.57
2018-08-23T00:35:49.056Z,41.87
2018-08-23T00:38:18.019Z,41.37
2018-08-23T00:40:46.558Z,42.63
2018-08-23T00:43:15.253Z,42.63
2018-08-23T00:45:43.995Z,42.80
2018-08-23T00:48:12.659Z,42.93
2018-08-23T00:50:48.722Z,46.07
2018-08-23T00:53:18.245Z,42.33
2018-08-23T00:55:46.854Z,44.07
2018-08-23T00:58:15.437Z,45.27
2018-08-23T01:00:53.503Z,45.67
2018-08-23T01:03:22.829Z,36.93
2018-08-23T01:05:52.981Z,38.43
2018-08-23T01:08:27.307Z,46.23
2018-08-23T01:10:55.966Z,40.23
2018-08-23T01:13:24.732Z,38.57
2018-08-23T01:15:57.665Z,38.47
2018-08-23T01:18:26.430Z,35.83
2018-08-23T01:20:55.577Z,36.57
2018-08-23T01:23:24.348Z,34.67
2018-08-23T01:25:53.390Z,38.23
2018-08-23T01:28:21.996Z,37.60
2018-08-23T01:30:50.621Z,41.27
2018-08-23T01:33:22.009Z,37.87
2018-08-23T01:35:51.600Z,39.37
2018-08-23T01:38:20.217Z,40.20
2018-08-23T01:40:48.950Z,38.17
2018-08-23T01:43:17.611Z,41.37
2018-08-23T01:45:46.706Z,37.10
2018-08-23T01:48:15.309Z,39.17
2018-08-23T01:50:43.884Z,37.53
2018-08-23T01:53:12.508Z,33.87
2018-08-23T01:55:40.978Z,34.50
2018-08-23T01:58:09.923Z,35.13
2018-08-23T02:00:38.450Z,37.47
2018-08-23T02:03:07.022Z,37.67
2018-08-23T02:05:37.679Z,34.73
2018-08-23T02:08:06.308Z,30.87
2018-08-23T02:10:34.932Z,34.87
2018-08-23T02:13:03.553Z,33.47
2018-08-23T02:15:36.364Z,31.97
2018-08-23T02:18:05.305Z,36.23
2018-08-23T02:20:33.906Z,33.87
2018-08-23T02:23:05.203Z,32.23
2018-08-23T02:25:33.942Z,28.97
2018-08-23T02:28:08.537Z,34.03
2018-08-23T02:30:46.845Z,33.93
2018-08-23T02:33:15.806Z,34.40
2018-08-23T02:35:56.944Z,27.43
2018-08-23T02:38:26.782Z,28.67
2018-08-23T02:40:56.396Z,30.33
2018-08-23T02:43:25.075Z,30.73
2018-08-23T02:45:54.808Z,31.27
2018-08-23T02:48:24.563Z,33.83
2018-08-23T02:50:53.896Z,28.80
2018-08-23T02:53:32.264Z,30.67
2018-08-23T02:56:06.087Z,31.93
2018-08-23T02:58:57.199Z,35.53
2018-08-23T03:01:28.456Z,34.57
2018-08-23T03:04:08.680Z,34.67
2018-08-23T03:07:12.649Z,35.20
2018-08-23T03:09:46.179Z,36.73
2018-08-23T03:12:16.415Z,34.43
2018-08-23T03:14:45.001Z,35.03
2018-08-23T03:17:19.045Z,32.53
2018-08-23T03:20:03.947Z,33.53
2018-08-23T03:22:33.493Z,34.33
2018-08-23T03:25:03.633Z,30.77
2018-08-23T03:27:32.512Z,33.70
2018-08-23T03:30:01.849Z,33.90
2018-08-23T03:32:31.241Z,34.97
2018-08-23T03:35:00.159Z,35.57
2018-08-23T03:37:28.709Z,35.87
2018-08-23T03:39:57.506Z,38.30
2018-08-23T03:42:26.766Z,34.63
2018-08-23T03:44:56.400Z,36.33
2018-08-23T03:47:25.309Z,35.97
2018-08-23T03:49:53.906Z,35.23
2018-08-23T03:52:23.852Z,37.87
2018-08-23T03:54:55.336Z,41.10
2018-08-23T03:57:24.484Z,36.90
2018-08-23T03:59:53.325Z,39.27
2018-08-23T04:02:22.411Z,40.43
2018-08-23T04:04:56.261Z,39.70
2018-08-23T04:07:24.835Z,38.50
2018-08-23T04:09:53.338Z,38.00
2018-08-23T04:12:22.161Z,36.83
2018-08-23T04:14:51.425Z,35.07
2018-08-23T04:17:20.196Z,38.77
2018-08-23T04:19:49.825Z,36.53
2018-08-23T04:22:18.671Z,36.33
2018-08-23T04:24:54.362Z,38.00
2018-08-23T04:27:23.045Z,40.30
2018-08-23T04:29:51.540Z,44.07
2018-08-23T04:32:28.856Z,39.57
2018-08-23T04:34:59.276Z,37.67
2018-08-23T04:37:28.455Z,35.07
2018-08-23T04:40:04.079Z,37.43
2018-08-23T04:42:32.665Z,38.50
2018-08-23T04:45:08.380Z,41.53
2018-08-23T04:47:45.765Z,44.93
2018-08-23T04:50:14.446Z,41.70
2018-08-23T04:52:43.302Z,42.67
2018-08-23T04:55:11.843Z,42.63
2018-08-23T04:57:40.474Z,38.57
2018-08-23T05:00:09.078Z,39.30
2018-08-23T05:02:38.189Z,39.80
2018-08-23T05:05:06.823Z,40.37
2018-08-23T05:07:35.756Z,46.10
2018-08-23T05:10:04.510Z,39.87
2018-08-23T05:12:33.826Z,36.50
2018-08-23T05:15:02.356Z,37.90
2018-08-23T05:17:31.101Z,41.63
2018-08-23T05:19:59.640Z,42.53
2018-08-23T05:22:28.835Z,41.37
2018-08-23T05:25:14.020Z,41.27
2018-08-23T05:27:59.127Z,41.50
2018-08-23T05:30:28.588Z,43.73
2018-08-23T05:33:05.758Z,39.53
2018-08-23T05:35:34.297Z,41.50
2018-08-23T05:38:02.828Z,41.57
2018-08-23T05:40:36.893Z,40.23
2018-08-23T05:43:05.497Z,42.27
2018-08-23T05:45:39.392Z,38.77
2018-08-23T05:48:22.974Z,47.13
2018-08-23T05:50:51.832Z,39.60
2018-08-23T05:53:20.798Z,40.60
2018-08-23T05:55:57.791Z,39.73
2018-08-23T05:58:27.573Z,37.77
2018-08-23T06:00:56.104Z,39.07
2018-08-23T06:03:27.697Z,38.03
2018-08-23T06:05:56.467Z,37.43
2018-08-23T06:08:25.154Z,35.83
2018-08-23T06:10:58.323Z,85.60
2018-08-23T06:13:27.099Z,41.03
2018-08-23T06:15:56.853Z,37.37
2018-08-23T06:18:26.166Z,35.10
2018-08-23T06:20:54.694Z,29.70
2018-08-23T06:23:33.563Z,32.47
2018-08-23T06:26:02.282Z,30.50
2018-08-23T06:28:30.964Z,29.63
2018-08-23T06:31:00.676Z,31.40
2018-08-23T06:33:39.608Z,35.13
2018-08-23T06:36:09.497Z,32.10
2018-08-23T06:38:39.928Z,39.43
2018-08-23T06:41:08.912Z,32.70
2018-08-23T06:43:37.465Z,27.90
2018-08-23T06:46:06.040Z,31.33
2018-08-23T06:48:34.588Z,33.50
2018-08-23T06:51:04.075Z,29.03
2018-08-23T06:53:51.898Z,27.77
2018-08-23T06:56:20.763Z,25.90
2018-08-23T06:58:49.407Z,26.47
2018-08-23T07:01:33.008Z,31.97
2018-08-23T07:04:16.217Z,27.57
2018-08-23T07:06:45.118Z,26.90
2018-08-23T07:09:16.045Z,26.10
2018-08-23T07:11:44.936Z,27.40
2018-08-23T07:14:15.444Z,27.10
2018-08-23T07:16:45.390Z,27.00
2018-08-23T07:19:27.990Z,26.70
2018-08-23T07:21:57.265Z,28.10
2018-08-23T07:24:43.222Z,25.67
2018-08-23T07:27:13.355Z,27.23
2018-08-23T07:29:44.521Z,26.70
2018-08-23T07:32:19.308Z,28.30
2018-08-23T07:34:55.121Z,28.57
2018-08-23T07:37:25.297Z,27.00
2018-08-23T07:39:59.260Z,28.07
2018-08-23T07:42:29.311Z,27.23
2018-08-23T07:44:59.096Z,31.53
2018-08-23T07:47:28.074Z,28.87
2018-08-23T07:49:58.628Z,29.83
2018-08-23T07:52:29.527Z,26.70
2018-08-23T07:54:58.169Z,28.03
2018-08-23T07:57:30.016Z,30.53
2018-08-23T08:00:00.922Z,27.67
2018-08-23T08:02:30.265Z,28.10
2018-08-23T08:04:59.373Z,28.60
2018-08-23T08:07:29.935Z,28.53
2018-08-23T08:10:00.661Z,29.23
2018-08-23T08:12:38.485Z,28.80
2018-08-23T08:15:09.822Z,34.17
2018-08-23T08:17:38.341Z,27.13
2018-08-23T08:20:09.386Z,28.13
2018-08-23T08:22:38.576Z,32.90
2018-08-23T08:25:13.194Z,29.93
2018-08-23T08:27:42.645Z,31.50
2018-08-23T08:30:14.395Z,31.07
2018-08-23T08:32:43.297Z,35.00
2018-08-23T08:35:16.150Z,29.77
2018-08-23T08:37:45.788Z,29.50
2018-08-23T08:40:18.586Z,34.37
2018-08-23T08:42:47.197Z,32.47
2018-08-23T08:45:15.749Z,30.30
2018-08-23T08:47:46.181Z,31.00
2018-08-23T08:50:14.925Z,30.57
2018-08-23T08:52:43.737Z,32.77
2018-08-23T08:55:13.726Z,30.60
2018-08-23T08:57:44.511Z,32.20
2018-08-23T09:00:12.970Z,31.07
2018-08-23T09:02:41.708Z,29.27
2018-08-23T09:05:10.964Z,25.43
2018-08-23T09:07:41.258Z,26.13
2018-08-23T09:10:09.919Z,26.93
2018-08-23T09:12:45.408Z,30.90
2018-08-23T09:15:14.020Z,27.80
2018-08-23T09:24:47.113Z,17.80
2018-08-23T09:27:17.254Z,18.93
2018-08-23T09:29:45.753Z,17.23
2018-08-23T09:32:19.735Z,19.60
2018-08-23T09:34:48.705Z,21.57
2018-08-23T09:37:17.181Z,18.97
2018-08-23T09:39:46.827Z,15.07
2018-08-23T09:42:15.455Z,18.23
2018-08-23T09:44:59.955Z,18.93
2018-08-23T09:47:29.002Z,20.33
2018-08-23T09:50:02.346Z,20.03
2018-08-23T09:52:32.118Z,20.67
2018-08-23T09:55:00.674Z,24.87
2018-08-23T09:57:29.258Z,20.00
2018-08-23T09:59:57.906Z,19.83
2018-08-23T10:02:31.864Z,21.60
2018-08-23T10:05:05.178Z,19.27
2018-08-23T10:07:39.130Z,20.40
2018-08-23T10:10:13.150Z,25.50
2018-08-23T10:12:47.653Z,19.73
2018-08-23T10:15:21.462Z,20.20
2018-08-23T10:17:55.323Z,18.20
2018-08-23T10:22:33.258Z,18.80
2018-08-23T10:25:07.068Z,17.33
2018-08-23T10:27:35.620Z,19.33
2018-08-23T10:30:09.130Z,19.27
2018-08-23T10:32:37.622Z,18.00
2018-08-23T10:35:06.132Z,19.23
2018-08-23T10:37:34.708Z,20.43
2018-08-23T10:40:04.398Z,20.93
2018-08-23T10:42:33.018Z,24.07
2018-08-23T10:45:01.646Z,21.67
2018-08-23T10:47:37.280Z,20.43
2018-08-23T10:50:05.860Z,21.33
2018-08-23T10:52:34.397Z,17.77
2018-08-23T10:55:02.977Z,20.80
2018-08-23T10:57:31.475Z,22.03
2018-08-23T11:00:00.470Z,22.37
2018-08-23T11:02:29.049Z,23.50
2018-08-23T11:04:57.662Z,24.90
2018-08-23T11:07:31.561Z,18.23
2018-08-23T11:10:05.610Z,23.70
2018-08-23T11:12:40.316Z,19.50
2018-08-23T11:15:14.252Z,19.37
2018-08-23T11:17:48.420Z,18.83
2018-08-23T11:20:23.182Z,19.40
2018-08-23T11:22:51.698Z,17.43
2018-08-23T11:25:20.400Z,17.70
2018-08-23T11:27:48.932Z,15.83
2018-08-23T11:30:17.783Z,17.43
2018-08-23T11:32:48.553Z,16.10
2018-08-23T11:35:17.849Z,16.17
2018-08-23T11:37:58.289Z,15.33
2018-08-23T11:40:30.016Z,13.53
2018-08-23T11:42:58.586Z,13.67
2018-08-23T11:45:27.054Z,13.27
2018-08-23T11:47:55.733Z,13.90
2018-08-23T11:50:24.305Z,12.30
2018-08-23T11:52:52.802Z,15.63
2018-08-23T11:55:21.393Z,11.23
2018-08-23T11:57:50.655Z,11.50
2018-08-23T12:00:20.193Z,10.13
2018-08-23T12:02:48.701Z,11.93
2018-08-23T12:05:19.242Z,10.13
2018-08-23T12:07:50.140Z,7.33
2018-08-23T12:10:19.797Z,7.80
2018-08-23T12:12:49.644Z,6.93
2018-08-23T12:15:27.196Z,7.53
2018-08-23T12:17:56.372Z,6.63
2018-08-23T12:20:24.885Z,7.97
2018-08-23T12:22:53.394Z,7.37
2018-08-23T12:25:21.850Z,6.57
2018-08-23T12:27:58.321Z,4.93
2018-08-23T12:30:26.846Z,6.73
2018-08-23T12:32:55.518Z,5.50
2018-08-23T12:35:24.681Z,4.27
2018-08-23T12:38:02.009Z,3.37
2018-08-23T12:40:37.365Z,6.40
2018-08-23T12:43:08.165Z,4.60
2018-08-23T12:45:39.498Z,4.27
2018-08-23T12:48:08.813Z,5.07
2018-08-23T12:50:37.393Z,4.13
2018-08-23T12:53:06.635Z,4.47
2018-08-23T12:55:35.168Z,4.37
2018-08-23T12:58:05.582Z,3.80
2018-08-23T13:00:34.073Z,5.87
2018-08-23T13:03:02.582Z,4.63
2018-08-23T13:05:31.181Z,5.23
2018-08-23T13:07:59.658Z,5.40
2018-08-23T13:10:28.229Z,4.70
2018-08-23T13:12:56.774Z,7.03
2018-08-23T13:15:25.360Z,6.67
2018-08-23T13:17:53.960Z,4.13
2018-08-23T13:20:22.504Z,5.27
2018-08-23T13:22:51.014Z,8.43
2018-08-23T13:25:19.589Z,8.80
2018-08-23T13:27:48.137Z,8.30
2018-08-23T13:30:16.603Z,4.97
2018-08-23T13:32:45.117Z,3.37
2018-08-23T13:35:13.693Z,6.23
2018-08-23T13:37:42.172Z,6.57
2018-08-23T13:40:16.067Z,3.97
2018-08-23T13:42:44.859Z,7.33
2018-08-23T13:45:13.375Z,4.93
2018-08-23T13:47:42.099Z,6.03
2018-08-23T13:50:10.926Z,4.53
2018-08-23T13:52:39.528Z,5.10
2018-08-23T13:55:08.064Z,4.50
2018-08-23T13:57:36.619Z,3.60
2018-08-23T14:00:05.158Z,3.80
2018-08-23T14:02:33.748Z,3.73
2018-08-23T14:05:02.326Z,3.87
2018-08-23T14:07:30.848Z,4.90
2018-08-23T14:09:59.485Z,2.20
2018-08-23T14:12:28.151Z,5.43
2018-08-23T14:14:57.993Z,8.07
2018-08-23T14:17:27.525Z,6.17
2018-08-23T14:19:56.329Z,3.17
2018-08-23T14:22:24.878Z,5.17
2018-08-23T14:24:53.394Z,5.90
2018-08-23T14:27:22.011Z,4.87
2018-08-23T14:29:50.697Z,6.23
2018-08-23T14:32:19.236Z,5.13
2018-08-23T14:34:48.039Z,5.70
2018-08-23T14:37:16.748Z,6.60
2018-08-23T14:39:45.453Z,6.63
2018-08-23T14:42:14.033Z,6.10
2018-08-23T14:44:42.639Z,4.00
2018-08-23T14:47:16.449Z,3.90
2018-08-23T14:49:45.107Z,3.60
2018-08-23T14:52:13.681Z,3.50
2018-08-23T14:54:43.255Z,6.40
2018-08-23T14:57:17.095Z,4.87
2018-08-23T14:59:46.250Z,5.30
2018-08-23T15:02:14.829Z,8.50
2018-08-23T15:04:46.246Z,3.13
2018-08-23T15:07:15.148Z,5.03
2018-08-23T15:09:43.839Z,5.63
2018-08-23T15:12:12.569Z,6.27
2018-08-23T15:14:41.126Z,4.37
2018-08-23T15:17:10.218Z,6.00
2018-08-23T15:19:39.212Z,3.40
2018-08-23T15:22:08.425Z,3.33
2018-08-23T15:24:38.508Z,4.17
2018-08-23T15:27:07.231Z,4.13
2018-08-23T15:29:35.821Z,5.43
2018-08-23T15:32:04.498Z,9.17
2018-08-23T15:34:33.369Z,4.87
2018-08-23T15:37:02.090Z,8.27
2018-08-23T15:39:30.672Z,6.07
2018-08-23T15:41:59.293Z,8.53
2018-08-23T15:44:28.792Z,6.63
2018-08-23T15:46:57.437Z,6.03
2018-08-23T15:49:26.056Z,7.97
2018-08-23T15:51:54.648Z,5.83
2018-08-23T15:54:23.202Z,8.17
2018-08-23T15:56:51.878Z,10.27
2018-08-23T15:59:20.413Z,6.83
2018-08-23T16:01:48.901Z,6.50
2018-08-23T16:04:17.467Z,8.20
2018-08-23T16:06:46.002Z,9.23
2018-08-23T16:09:14.561Z,8.53
2018-08-23T16:11:43.043Z,7.87
2018-08-23T16:14:12.326Z,7.50
2018-08-23T16:16:46.130Z,8.37
2018-08-23T16:19:20.099Z,8.50
2018-08-23T16:21:54.007Z,8.90
2018-08-23T16:24:22.591Z,5.97
2018-08-23T16:26:56.992Z,9.07
2018-08-23T16:29:25.578Z,7.30
2018-08-23T16:31:54.162Z,7.33
2018-08-23T16:34:22.687Z,8.20
2018-08-23T16:36:51.222Z,10.27
2018-08-23T16:39:19.845Z,7.83
2018-08-23T16:41:48.453Z,7.97
2018-08-23T16:44:17.002Z,6.93
2018-08-23T16:46:46.577Z,8.37
2018-08-23T16:49:15.145Z,6.50
2018-08-23T16:51:43.721Z,6.10
2018-08-23T16:54:12.306Z,8.20
2018-08-23T16:56:40.855Z,8.13
2018-08-23T16:59:09.383Z,6.80
2018-08-23T17:01:38.050Z,3.90
2018-08-23T17:04:06.669Z,9.63
2018-08-23T17:06:35.365Z,7.00
2018-08-23T17:09:06.375Z,6.33
2018-08-23T17:11:34.894Z,5.83
2018-08-23T17:14:03.717Z,8.03
2018-08-23T17:16:37.605Z,5.83
2018-08-23T17:19:06.371Z,8.07
2018-08-23T17:21:34.981Z,8.87
2018-08-23T17:24:03.601Z,7.93
2018-08-23T17:26:32.164Z,5.77
2018-08-23T17:29:00.682Z,8.43
2018-08-23T17:31:29.335Z,6.03
2018-08-23T17:33:57.801Z,6.07
2018-08-23T17:36:26.476Z,4.00
2018-08-23T17:39:02.235Z,4.20
2018-08-23T17:41:34.490Z,6.67
2018-08-23T17:44:03.047Z,4.80
2018-08-23T17:46:31.575Z,7.93
2018-08-23T17:49:00.166Z,3.57
2018-08-23T17:51:29.338Z,6.07
2018-08-23T17:53:57.816Z,11.47
2018-08-23T17:56:26.327Z,4.20
2018-08-23T17:58:54.875Z,4.20
2018-08-23T18:01:23.934Z,3.90
2018-08-23T18:03:53.043Z,3.90
2018-08-23T18:06:21.553Z,7.53
2018-08-23T18:08:50.151Z,7.90
2018-08-23T18:11:18.737Z,5.83
2018-08-23T18:13:47.227Z,3.63
2018-08-23T18:16:21.164Z,7.93
2018-08-23T18:18:49.678Z,4.43
2018-08-23T18:21:18.253Z,5.27
2018-08-23T18:23:46.815Z,3.50
2018-08-23T18:26:15.388Z,4.80
2018-08-23T18:28:43.892Z,3.83
2018-08-23T18:31:12.551Z,2.40
2018-08-23T18:33:41.127Z,4.37
2018-08-23T18:36:09.665Z,3.33
2018-08-23T18:38:38.283Z,5.27
2018-08-23T18:41:06.834Z,2.90
2018-08-23T18:43:35.373Z,2.10
2018-08-23T18:46:04.022Z,1.80
2018-08-23T18:48:32.540Z,3.43
2018-08-23T18:51:01.028Z,2.87
2018-08-23T18:53:30.508Z,1.20
2018-08-23T18:55:59.318Z,2.20
2018-08-23T18:58:29.256Z,5.90
2018-08-23T19:01:01.936Z,1.63
2018-08-23T19:03:30.547Z,1.70
2018-08-23T19:05:59.294Z,4.17
2018-08-23T19:08:27.948Z,9.70
2018-08-23T19:10:56.671Z,3.77
2018-08-23T19:13:26.432Z,4.77
2018-08-23T19:16:01.209Z,6.80
2018-08-23T19:18:29.773Z,10.37
2018-08-23T19:20:58.534Z,8.90
2018-08-23T19:23:27.141Z,8.00
2018-08-23T19:25:55.886Z,9.50
2018-08-23T19:28:24.782Z,11.63
2018-08-23T19:30:53.688Z,10.73
2018-08-23T19:33:22.690Z,11.33
2018-08-23T19:35:52.237Z,12.00
2018-08-23T19:38:22.283Z,10.33
2018-08-23T19:40:50.846Z,12.87
2018-08-23T19:43:19.732Z,10.63
2018-08-23T19:45:54.021Z,9.10
2018-08-23T19:48:22.708Z,9.53
2018-08-23T19:50:51.321Z,10.60
2018-08-23T19:53:20.372Z,11.03
2018-08-23T19:55:55.177Z,12.47
2018-08-23T19:58:24.377Z,10.00
2018-08-23T20:00:57.194Z,7.80
2018-08-23T20:03:26.141Z,10.40
2018-08-23T20:05:54.757Z,8.73
2018-08-23T20:08:23.840Z,11.13
2018-08-23T20:10:53.693Z,12.40
2018-08-23T20:13:23.117Z,7.27
2018-08-23T20:15:52.406Z,14.67
2018-08-23T20:18:21.037Z,10.73
2018-08-23T20:20:50.112Z,9.13
2018-08-23T20:23:18.748Z,10.23
2018-08-23T20:25:47.395Z,17.17
2018-08-23T20:28:15.971Z,11.90
2018-08-23T20:30:45.346Z,12.17
2018-08-23T20:33:14.278Z,9.20
2018-08-23T20:35:51.472Z,8.77
2018-08-23T20:38:24.442Z,8.70
2018-08-23T20:40:55.004Z,12.80
2018-08-23T20:43:23.824Z,14.13
2018-08-23T20:45:52.781Z,12.10
2018-08-23T20:48:21.525Z,13.60
2018-08-23T20:50:50.898Z,10.83
2018-08-23T20:53:22.861Z,8.77
2018-08-23T20:55:51.818Z,10.77
2018-08-23T20:58:21.030Z,12.67
2018-08-23T21:00:50.263Z,14.07
2018-08-23T21:03:19.005Z,12.30
2018-08-23T21:05:47.607Z,12.43
2018-08-23T21:08:16.201Z,13.77
2018-08-23T21:10:44.766Z,12.70
2018-08-23T21:13:14.475Z,8.60
2018-08-23T21:15:43.132Z,11.87
2018-08-23T21:18:12.221Z,16.43
2018-08-23T21:20:41.609Z,12.57
2018-08-23T21:23:10.794Z,11.47
2018-08-23T21:25:39.581Z,12.33
2018-08-23T21:28:08.271Z,11.87
2018-08-23T21:30:37.817Z,13.07
2018-08-23T21:33:06.421Z,15.80
2018-08-23T21:35:35.072Z,12.57
2018-08-23T21:38:07.924Z,10.50
2018-08-23T21:40:36.578Z,11.20
2018-08-23T21:43:05.273Z,16.93
2018-08-23T21:45:34.776Z,12.53
2018-08-23T21:48:03.446Z,13.27
2018-08-23T21:50:32.218Z,12.97
2018-08-23T21:53:00.999Z,13.37
2018-08-23T21:55:34.807Z,14.87
2018-08-23T21:58:03.401Z,14.70
2018-08-23T22:00:36.584Z,9.30
2018-08-23T22:03:05.986Z,10.17
2018-08-23T22:05:36.667Z,12.13
2018-08-23T22:08:05.270Z,15.10
2018-08-23T22:10:33.890Z,15.97
2018-08-23T22:13:02.667Z,15.83
2018-08-23T22:15:31.472Z,15.80
2018-08-23T22:18:00.062Z,13.47
2018-08-23T22:20:28.644Z,11.77
2018-08-23T22:22:57.323Z,21.67
2018-08-23T22:25:25.966Z,17.23
2018-08-23T22:27:54.593Z,14.27
2018-08-23T22:30:23.482Z,13.87
2018-08-23T22:32:52.455Z,17.33
2018-08-23T22:35:21.770Z,12.63
2018-08-23T22:37:50.418Z,17.50
2018-08-23T22:40:19.089Z,13.13
2018-08-23T22:42:47.841Z,15.27
2018-08-23T22:45:16.379Z,15.20
2018-08-23T22:47:44.931Z,17.73
2018-08-23T22:50:13.510Z,16.83
2018-08-23T22:52:42.122Z,11.17
2018-08-23T22:55:10.702Z,13.57
2018-08-23T22:57:39.313Z,11.03
2018-08-23T23:00:09.253Z,14.37
2018-08-23T23:02:42.341Z,14.67
2018-08-23T23:05:11.273Z,14.80
2018-08-23T23:07:40.821Z,12.50
2018-08-23T23:10:09.617Z,18.63
2018-08-23T23:12:42.374Z,15.87
2018-08-23T23:15:16.396Z,13.50
2018-08-23T23:17:45.097Z,18.63
2018-08-23T23:20:13.604Z,14.60
2018-08-23T23:22:42.349Z,14.53
2018-08-23T23:25:11.045Z,16.70
2018-08-23T23:27:40.707Z,13.37
2018-08-23T23:30:09.538Z,14.80
2018-08-23T23:32:38.279Z,14.37
2018-08-23T23:35:06.952Z,14.20
2018-08-23T23:37:35.602Z,19.33
2018-08-23T23:40:04.192Z,18.37
2018-08-23T23:42:33.804Z,19.47
2018-08-23T23:45:02.946Z,15.77
2018-08-23T23:47:31.488Z,15.37
2018-08-23T23:50:00.597Z,16.53
2018-08-23T23:52:29.276Z,14.07
2018-08-23T23:54:58.335Z,14.73
2018-08-23T23:57:26.966Z,18.47
2018-08-23T23:59:56.027Z,16.53
